KNGP/NGP METAR and TAF weather

Enter ICAO airport designator
Station Type Date Time Source
KNGP METAR 2021/08/04 18:56 UTC NOAA

KNGP 041856Z 13010KT 10SM FEW030 SCT070 SCT180 BKN300 33/26 A2996 RMK AO2 SLP144 TCU DSNT N AND W T2 SET T03280256


Station Type Date Time Source
KNGP Decoded METAR 2021/08/04 18:56 UTC NOAA

CORPUS CHRISTI NAVAL AIR STN, TX, United States (KNGP) 27-41N 097-17W
Aug 04, 2021 - 02:56 PM EDT / 2021.08.04 1856 UTC
Wind: from the SE (130 degrees) at 12 MPH (10 KT):0
Visibility: 10 mile(s):0
Sky conditions: mostly cloudy
Weather: Towering cumulus clouds observed
Temperature: 91.0 F (32.8 C)
Heat index: 105.4 F (40.8 C):1
Dew Point: 78.1 F (25.6 C)
Relative Humidity: 65%
Pressure (altimeter): 29.96 in. Hg (1014 hPa)
ob: KNGP 041856Z 13010KT 10SM FEW030 SCT070 SCT180 BKN300 33/26 A2996 RMK AO2 SLP144 TCU DSNT N AND W T2 SET T03280256
cycle: 19

Station Type Date Time Source
KNGP TAF 2021/08/04 18:15 UTC NOAA

TAF TAF
AMD KNGP 0418/0515 VRB05KT 9999 VCSH FEW030 FEW070 SCT180 BKN300 QNH2995INS
BECMG 0418/0419 13009KT 9999 VCTS FEW035CB SCT070 SCT200 BKN300 QNH2989INS
TEMPO 0419/0423 VRB05KT 9999 TS
FM042300 14010KT 9999 FEW020 SCT035 SCT200 BKN300 QNH2989INS
FM050800 20007KT 9999 VCTS SCT020CB SCT050 BKN150 BKN300 QNH2994INS
FM051300 25007KT 9999 VCSH SCT020 BKN050 BKN150 OVC300 QNH2999INS T33/0420Z T26/0512Z
AMD 1805 FN20042

Example: see airport list